Time;durP1;ratioP1;P1;durP2;ratioP2;P2;SDS_P1;SDS_P2;PMS_P1;PMS_P2;Temp;Humidity;BMP_temperature;BMP_pressure;BME280_temperature;BME280_humidity;BME280_pressure;Samples;Min_cycle;Max_cycle;Signal;HPM_P1;HPM_P2
2022/05/07 00:01:59;;;;;;;15.27;7.40;;;;;;;9.99;63.42;101686.19;5031528;28;20034;-63
2022/05/07 00:04:25;;;;;;;8.63;6.13;;;;;;;9.84;64.16;101676.94;5031451;28;20408;-64
2022/05/07 00:06:51;;;;;;;10.43;6.97;;;;;;;9.78;65.04;101688.09;5035101;28;20037;-63
2022/05/07 00:09:18;;;;;;;11.83;6.57;;;;;;;9.58;65.35;101661.44;5035269;28;20092;-63
2022/05/07 00:12:09;;;;;;;15.50;7.33;;;;;;;9.59;65.52;101673.75;5035556;28;20157;-64
2022/05/07 00:14:35;;;;;;;9.90;6.47;;;;;;;9.57;66.85;101677.53;5035116;28;20156;-64
2022/05/07 00:19:58;;;;;;;14.88;7.63;;;;;;;9.52;66.96;101672.59;5011722;28;20050;-63
2022/05/07 00:22:23;;;;;;;17.80;7.90;;;;;;;9.48;67.54;101671.16;5035151;28;20124;-64
2022/05/07 00:24:50;;;;;;;9.63;6.50;;;;;;;9.35;68.49;101661.75;5035058;28;20026;-62
2022/05/07 00:27:16;;;;;;;14.60;6.97;;;;;;;9.23;69.05;101645.03;5034762;28;20421;-63
2022/05/07 00:29:41;;;;;;;11.67;6.50;;;;;;;9.35;69.64;101661.75;5034842;28;20048;-65
2022/05/07 00:32:09;;;;;;;12.13;6.50;;;;;;;9.25;69.50;101643.06;5034528;28;20040;-62
2022/05/07 00:34:38;;;;;;;12.93;6.27;;;;;;;9.41;69.45;101664.72;5033660;28;20049;-62
2022/05/07 00:37:28;;;;;;;13.07;5.80;;;;;;;9.32;70.39;101644.25;5034829;28;20076;-63
2022/05/07 00:39:54;;;;;;;11.03;7.13;;;;;;;9.22;69.55;101635.38;5035125;28;20488;-63
2022/05/07 00:42:22;;;;;;;10.00;6.17;;;;;;;9.31;70.88;101656.69;5034806;28;20552;-63
2022/05/07 00:44:48;;;;;;;8.18;6.47;;;;;;;9.18;70.42;101639.25;5034702;28;20408;-61
2022/05/07 00:47:31;;;;;;;10.70;6.87;;;;;;;9.27;71.24;101652.63;5034619;28;20037;-62
2022/05/07 00:51:33;;;;;;;11.97;5.80;;;;;;;9.15;71.39;101650.16;5034757;28;20381;-62
2022/05/07 00:52:45;;;;;;;7.77;6.03;;;;;;;9.10;71.58;101634.63;5034421;28;20435;-62
2022/05/07 00:55:12;;;;;;;11.27;6.43;;;;;;;9.17;71.74;101656.19;5034561;28;20038;-62
2022/05/07 00:57:38;;;;;;;9.90;6.07;;;;;;;9.14;71.30;101656.44;5034534;28;20386;-63
2022/05/07 01:00:06;;;;;;;16.47;6.17;;;;;;;9.04;71.18;101640.47;5034327;28;20514;-63
2022/05/07 01:02:32;;;;;;;11.50;6.40;;;;;;;8.92;71.46;101626.41;5034286;28;20037;-62
2022/05/07 01:04:58;;;;;;;13.63;7.60;;;;;;;9.05;72.08;101657.25;5034328;28;20402;-62
2022/05/07 01:07:23;;;;;;;10.47;6.33;;;;;;;8.59;72.49;101568.19;5034328;28;20068;-62
2022/05/07 01:09:49;;;;;;;12.17;6.53;;;;;;;8.98;72.45;101630.38;5034554;28;20033;-62
2022/05/07 01:12:18;;;;;;;;;;;;;;;9.14;70.67;101651.13;5035052;28;20390;-63
2022/05/07 01:14:44;;;;;;;12.03;6.27;;;;;;;9.16;71.79;101652.69;5034697;28;20035;-63
2022/05/07 01:17:09;;;;;;;11.30;7.23;;;;;;;9.17;71.83;101634.94;5034031;28;20079;-62
2022/05/07 01:19:35;;;;;;;10.33;7.23;;;;;;;9.22;71.75;101638.03;5032858;28;20041;-62
2022/05/07 01:22:02;;;;;;;12.63;6.43;;;;;;;9.21;71.94;101625.72;5033101;28;20048;-63
2022/05/07 01:24:28;;;;;;;16.07;7.10;;;;;;;9.34;72.08;101636.97;5034010;28;20488;-62
2022/05/07 01:26:53;;;;;;;12.47;7.73;;;;;;;9.26;72.07;101615.53;5033963;28;20097;-63
2022/05/07 01:29:18;;;;;;;12.07;7.40;;;;;;;9.39;71.32;101641.88;5033757;28;20029;-61
2022/05/07 01:31:44;;;;;;;9.87;6.50;;;;;;;9.41;71.54;101637.28;5033843;28;20037;-62
2022/05/07 01:34:12;;;;;;;10.43;6.50;;;;;;;9.42;71.93;101636.31;5033252;28;20061;-61
2022/05/07 01:36:38;;;;;;;11.77;6.70;;;;;;;9.35;71.87;101621.88;5033481;28;20049;-62
2022/05/07 01:39:04;;;;;;;10.70;7.13;;;;;;;9.45;72.17;101636.03;5033957;28;20037;-63
2022/05/07 01:41:29;;;;;;;12.43;7.67;;;;;;;9.25;71.87;101601.41;5033759;28;20460;-61
2022/05/07 01:43:55;;;;;;;11.77;6.90;;;;;;;9.38;72.12;101622.44;5033519;28;20045;-62
2022/05/07 01:49:04;;;;;;;9.30;6.10;;;;;;;9.25;72.63;101600.53;5033249;28;20455;-63
2022/05/07 01:51:30;;;;;;;11.93;6.97;;;;;;;9.24;73.10;101609.50;5033721;28;20045;-63
2022/05/07 01:53:56;;;;;;;9.53;7.10;;;;;;;9.21;73.17;101607.09;5048651;28;20041;-62
2022/05/07 01:56:21;;;;;;;10.63;5.90;;;;;;;9.10;73.34;101592.09;5033741;28;20052;-63
2022/05/07 01:58:48;;;;;;;9.73;6.30;;;;;;;9.17;72.88;101618.97;5033208;28;20072;-62
2022/05/07 02:01:14;;;;;;;10.47;6.47;;;;;;;9.13;73.52;101621.06;5033254;28;20049;-61
2022/05/07 02:03:40;;;;;;;11.60;6.13;;;;;;;9.06;73.48;101611.09;5033257;28;20128;-62
2022/05/07 02:06:05;;;;;;;8.33;6.17;;;;;;;9.17;73.99;101616.31;5033447;28;20176;-63
2022/05/07 02:08:31;;;;;;;8.87;6.30;;;;;;;9.19;73.88;101635.63;5033067;28;20099;-63
2022/05/07 02:10:59;;;;;;;12.93;6.50;;;;;;;9.16;73.73;101622.63;5033245;28;20040;-64
2022/05/07 02:13:26;;;;;;;9.70;6.38;;;;;;;8.38;73.44;101508.00;5033045;28;20049;-59
2022/05/07 02:15:51;;;;;;;8.33;5.53;;;;;;;9.13;73.90;101622.88;5033146;28;20129;-63
2022/05/07 02:18:17;;;;;;;10.47;6.50;;;;;;;9.12;74.00;101611.41;5032954;28;20118;-61
2022/05/07 02:20:42;;;;;;;8.03;6.37;;;;;;;9.14;74.40;101613.94;5032721;28;20129;-62
2022/05/07 02:23:08;;;;;;;10.67;6.30;;;;;;;9.18;74.39;101613.53;5032834;28;20037;-61
2022/05/07 02:25:33;;;;;;;9.67;6.23;;;;;;;9.19;74.45;101609.91;5032747;28;20073;-61
2022/05/07 02:27:59;;;;;;;9.80;6.30;;;;;;;8.89;74.55;101552.28;5031797;28;20095;-61
2022/05/07 02:30:24;;;;;;;7.27;6.10;;;;;;;9.23;73.57;101591.88;5032689;28;20049;-63
2022/05/07 02:32:50;;;;;;;9.87;6.70;;;;;;;9.30;73.46;101603.66;5032297;28;20037;-60
2022/05/07 02:35:17;;;;;;;9.33;6.07;;;;;;;9.31;73.33;101611.50;5031553;28;20457;-61
2022/05/07 02:37:43;;;;;;;15.70;7.03;;;;;;;9.31;73.67;101608.00;5032726;28;20342;-63
2022/05/07 02:40:09;;;;;;;12.37;7.00;;;;;;;9.29;73.54;101600.16;5032512;28;20053;-62
2022/05/07 02:42:36;;;;;;;9.63;6.40;;;;;;;9.32;73.40;101601.72;5032407;28;20045;-62
2022/05/07 02:45:11;;;;;;;12.20;6.87;;;;;;;9.40;73.67;101607.19;5032322;28;20079;-64
2022/05/07 02:47:38;;;;;;;10.37;6.83;;;;;;;9.31;73.24;101587.59;5047938;28;20037;-61
2022/05/07 02:50:05;;;;;;;10.10;6.70;;;;;;;9.39;72.87;101589.56;5032692;28;20041;-62
2022/05/07 02:52:33;;;;;;;7.63;6.00;;;;;;;9.48;73.08;101602.03;5032541;28;20397;-62
2022/05/07 02:55:08;;;;;;;10.50;5.88;;;;;;;9.57;73.33;101600.41;5032239;28;20392;-63
2022/05/07 02:57:34;;;;;;;9.53;6.17;;;;;;;9.55;72.65;101586.41;5031907;28;20443;-62
2022/05/07 03:00:00;;;;;;;9.57;6.37;;;;;;;9.62;72.28;101585.72;5032321;28;20099;-62
2022/05/07 03:02:26;;;;;;;10.40;6.43;;;;;;;9.74;71.95;101593.56;5032247;28;20449;-61
2022/05/07 03:04:52;;;;;;;7.83;5.33;;;;;;;9.81;72.14;101598.19;5030671;28;20079;-63
2022/05/07 03:07:18;;;;;;;10.13;6.80;;;;;;;9.87;71.48;101607.47;5031943;28;20068;-63
2022/05/07 03:09:43;;;;;;;8.60;5.90;;;;;;;9.94;71.37;101604.13;5030872;28;20073;-62
2022/05/07 03:12:09;;;;;;;11.20;6.27;;;;;;;11.05;68.62;101613.47;5030503;28;20470;-62
2022/05/07 03:14:37;;;;;;;8.50;6.72;;;;;;;12.52;63.47;101606.16;5032009;28;20380;-62
2022/05/07 03:17:03;;;;;;;8.97;5.97;;;;;;;13.65;58.83;101586.44;5032178;28;20037;-62
2022/05/07 03:19:29;;;;;;;8.97;6.03;;;;;;;14.70;55.68;101607.16;5031921;28;20683;-62
2022/05/07 03:21:55;;;;;;;7.40;5.77;;;;;;;15.11;53.86;101588.31;5031977;28;20124;-62
2022/05/07 03:24:20;;;;;;;9.67;6.53;;;;;;;15.38;52.89;101587.06;5031772;28;20036;-62
2022/05/07 03:26:46;;;;;;;8.63;6.17;;;;;;;16.04;51.57;101609.91;5030207;28;20053;-62
2022/05/07 03:29:11;;;;;;;11.10;6.03;;;;;;;16.52;49.58;101608.72;5031523;28;20044;-61
2022/05/07 03:31:39;;;;;;;12.13;6.30;;;;;;;16.81;48.67;101591.84;5031804;28;20123;-61
2022/05/07 03:34:08;;;;;;;9.20;5.90;;;;;;;16.46;49.62;101603.22;5031489;28;20061;-61
2022/05/07 03:36:34;;;;;;;9.10;6.37;;;;;;;15.87;50.46;101571.56;5030520;28;20041;-62
2022/05/07 03:39:00;;;;;;;9.70;6.50;;;;;;;15.86;50.63;101601.28;5031372;28;20037;-60
2022/05/07 03:41:25;;;;;;;10.70;6.17;;;;;;;15.29;52.19;101598.81;5034874;28;20508;-61
2022/05/07 03:43:51;;;;;;;23.47;6.93;;;;;;;14.55;53.93;101580.22;5036082;28;20044;-62
2022/05/07 03:46:16;;;;;;;10.43;6.20;;;;;;;14.01;55.83;101602.25;5035773;28;20559;-62
2022/05/07 03:48:42;;;;;;;10.73;6.80;;;;;;;13.42;57.52;101590.69;5034451;28;20060;-61
2022/05/07 03:51:08;;;;;;;10.27;7.10;;;;;;;13.07;58.44;101587.16;5035719;28;20079;-60
2022/05/07 03:53:35;;;;;;;10.83;6.47;;;;;;;12.56;60.13;101594.16;5035524;28;20041;-62
2022/05/07 03:56:02;;;;;;;12.05;5.55;;;;;;;12.28;60.99;101592.56;5035835;28;20484;-63
2022/05/07 03:58:29;;;;;;;7.40;6.03;;;;;;;12.06;61.18;101591.19;5035622;28;20041;-62
2022/05/07 04:00:55;;;;;;;14.53;7.33;;;;;;;12.05;61.58;101597.53;5035703;28;20037;-61
2022/05/07 04:03:21;;;;;;;11.87;6.70;;;;;;;12.27;61.89;101598.91;5035257;28;20477;-62
2022/05/07 04:05:47;;;;;;;14.30;6.77;;;;;;;12.35;61.69;101601.66;5035301;28;20047;-61
2022/05/07 04:08:12;;;;;;;9.47;6.97;;;;;;;12.05;62.12;101593.03;5035118;28;20443;-62
2022/05/07 04:10:38;;;;;;;9.00;7.50;;;;;;;11.96;62.49;101590.44;5035193;28;20132;-61
2022/05/07 04:13:04;;;;;;;9.57;6.10;;;;;;;12.34;61.26;101614.16;5035084;28;20037;-63
2022/05/07 04:15:29;;;;;;;15.03;7.63;;;;;;;12.15;61.57;101610.81;5035072;28;20065;-61
2022/05/07 04:17:55;;;;;;;10.00;7.13;;;;;;;11.83;62.69;101601.47;5034972;28;20391;-61
2022/05/07 04:20:21;;;;;;;9.60;6.73;;;;;;;11.64;63.44;101597.06;5035080;28;20041;-65
2022/05/07 04:22:46;;;;;;;10.17;6.63;;;;;;;11.48;63.50;101587.03;5035034;28;20191;-65
2022/05/07 04:25:13;;;;;;;18.73;7.70;;;;;;;11.53;63.94;101605.25;5034438;28;20501;-63
2022/05/07 04:27:39;;;;;;;11.63;7.83;;;;;;;11.56;63.70;101604.94;5035151;28;20045;-63
2022/05/07 04:30:05;;;;;;;11.00;6.77;;;;;;;11.56;63.70;101609.44;5034847;28;20045;-62
2022/05/07 04:32:31;;;;;;;12.57;7.80;;;;;;;11.48;63.61;101595.03;5034648;28;20037;-62
2022/05/07 04:35:00;;;;;;;14.90;7.83;;;;;;;11.53;63.79;101615.09;5034474;28;20110;-61
2022/05/07 04:37:25;;;;;;;14.83;8.03;;;;;;;11.32;63.51;101570.84;5034345;28;20472;-60
2022/05/07 04:39:51;;;;;;;16.87;9.20;;;;;;;11.51;63.81;101590.38;5034436;28;20132;-61
2022/05/07 04:42:17;;;;;;;14.47;7.97;;;;;;;11.59;63.69;101598.50;5035031;28;20190;-61
2022/05/07 04:44:43;;;;;;;13.63;8.60;;;;;;;11.38;63.93;101575.59;5035761;28;20086;-62
2022/05/07 04:47:08;;;;;;;15.40;9.60;;;;;;;11.83;62.98;101581.94;5034619;28;20189;-60
2022/05/07 04:49:35;;;;;;;15.00;8.47;;;;;;;13.21;58.94;101593.75;5034332;28;20128;-63
2022/05/07 04:52:01;;;;;;;9.77;8.07;;;;;;;14.50;54.88;101582.56;5033189;28;20037;-64
2022/05/07 04:54:26;;;;;;;15.03;8.90;;;;;;;15.79;51.16;101576.97;5033992;28;20030;-62
2022/05/07 04:56:52;;;;;;;9.60;7.50;;;;;;;16.61;48.76;101574.53;5034158;28;20389;-62
2022/05/07 04:59:19;;;;;;;12.90;7.00;;;;;;;16.77;47.38;101538.56;5034135;28;20065;-61
2022/05/07 05:01:46;;;;;;;16.43;7.73;;;;;;;16.64;47.85;101560.72;5034016;28;20046;-61
2022/05/07 05:04:11;;;;;;;8.67;6.47;;;;;;;16.40;48.59;101573.34;5033957;28;20040;-62
2022/05/07 05:06:37;;;;;;;9.67;6.23;;;;;;;15.25;51.05;101570.66;5033832;28;20041;-61
2022/05/07 05:09:05;;;;;;;8.67;6.57;;;;;;;14.32;53.61;101567.63;5065696;28;20626;-62
2022/05/07 05:11:31;;;;;;;9.27;7.57;;;;;;;13.62;56.17;101570.69;5034053;28;20038;-62
2022/05/07 05:13:57;;;;;;;12.63;6.40;;;;;;;13.07;57.44;101552.38;5033761;28;20296;-61
2022/05/07 05:16:23;;;;;;;10.53;6.00;;;;;;;12.68;58.81;101527.91;5033757;28;20056;-62
2022/05/07 05:18:48;;;;;;;15.47;7.47;;;;;;;12.63;59.19;101563.13;5033758;28;20038;-61
2022/05/07 05:21:14;;;;;;;9.93;6.17;;;;;;;12.49;60.24;101555.69;5033519;28;20120;-62
2022/05/07 05:23:39;;;;;;;9.00;5.80;;;;;;;12.36;60.79;101563.25;5033581;28;20037;-60
2022/05/07 05:26:05;;;;;;;6.90;6.17;;;;;;;12.34;61.00;101557.22;5033904;28;20125;-61
2022/05/07 05:28:30;;;;;;;13.23;6.30;;;;;;;12.28;60.61;101550.69;5033765;28;20381;-61
2022/05/07 05:30:56;;;;;;;8.10;6.27;;;;;;;12.30;60.91;101539.84;5033576;28;20033;-64
2022/05/07 05:33:25;;;;;;;11.07;5.50;;;;;;;12.24;60.02;101503.06;5049127;28;20057;-62
2022/05/07 05:35:51;;;;;;;9.87;6.53;;;;;;;12.56;59.85;101555.91;5032395;28;20061;-63
2022/05/07 05:38:16;;;;;;;11.63;6.03;;;;;;;12.64;59.87;101554.13;5033497;28;20076;-63
2022/05/07 05:40:45;;;;;;;11.17;6.20;;;;;;;12.59;59.94;101521.69;5031669;28;20036;-62
2022/05/07 05:43:11;;;;;;;14.20;6.77;;;;;;;12.77;58.61;101548.38;5032089;28;20540;-65
2022/05/07 05:45:37;;;;;;;11.60;6.20;;;;;;;12.80;58.65;101541.88;5048234;28;20121;-63
2022/05/07 05:48:06;;;;;;;12.30;6.27;;;;;;;12.81;58.81;101532.84;5031648;28;20061;-63
2022/05/07 05:50:32;;;;;;;6.37;5.27;;;;;;;12.88;58.25;101544.56;5033117;28;20408;-62
2022/05/07 05:52:58;;;;;;;12.43;6.13;;;;;;;12.71;58.28;101503.53;5033037;28;20037;-62
2022/05/07 05:55:24;;;;;;;8.70;6.17;;;;;;;12.94;57.95;101535.91;5032341;28;20045;-61
2022/05/07 05:57:50;;;;;;;7.53;5.60;;;;;;;12.85;57.45;101510.16;5048996;28;20037;-62
2022/05/07 06:00:17;;;;;;;8.63;5.80;;;;;;;13.09;57.62;101536.19;5033134;28;20127;-62
2022/05/07 06:02:45;;;;;;;11.40;5.47;;;;;;;13.11;57.82;101521.66;5031966;28;20036;-62
2022/05/07 06:05:11;;;;;;;;;;;;;;;13.25;56.95;101531.75;5033633;28;20061;-62
2022/05/07 06:07:37;;;;;;;9.13;6.73;;;;;;;13.08;57.87;101524.63;5031754;28;19917;-63
2022/05/07 06:10:04;;;;;;;15.27;6.67;;;;;;;12.96;57.62;101510.69;5033076;28;20033;-65
2022/05/07 06:12:30;;;;;;;10.90;6.73;;;;;;;13.13;57.94;101533.00;5033081;28;20077;-61
2022/05/07 06:14:56;;;;;;;9.40;5.87;;;;;;;13.21;57.21;101514.34;5032704;28;20156;-63
2022/05/07 06:17:23;;;;;;;10.73;6.73;;;;;;;13.40;56.96;101529.31;5032464;28;20136;-62
2022/05/07 06:19:49;;;;;;;14.23;7.33;;;;;;;13.46;56.95;101530.50;5031068;28;20045;-60
2022/05/07 06:22:15;;;;;;;12.83;7.60;;;;;;;13.52;56.67;101527.16;5032770;28;20037;-62
2022/05/07 06:27:33;;;;;;;9.60;6.30;;;;;;;13.63;55.45;101518.84;5042007;28;20127;-63
2022/05/07 06:30:03;;;;;;;14.47;6.20;;;;;;;13.43;55.22;101485.34;5052122;28;20037;-61
2022/05/07 06:32:33;;;;;;;9.10;5.93;;;;;;;13.70;55.86;101517.19;5051466;28;20044;-60
2022/05/07 06:35:03;;;;;;;8.60;6.33;;;;;;;13.71;54.64;101508.13;5051060;28;20531;-62
2022/05/07 06:37:29;;;;;;;11.73;5.90;;;;;;;13.70;54.89;101513.66;5050586;28;20539;-64
2022/05/07 06:39:55;;;;;;;11.40;6.07;;;;;;;13.66;54.97;101499.78;5050627;28;20095;-62
2022/05/07 06:42:20;;;;;;;13.17;5.83;;;;;;;13.84;54.92;101516.50;5050815;28;20041;-62
2022/05/07 06:44:45;;;;;;;35.33;7.67;;;;;;;13.95;54.33;101510.84;5047236;28;20041;-64
2022/05/07 06:47:11;;;;;;;10.57;5.33;;;;;;;14.05;53.79;101496.44;5051699;28;20119;-61
2022/05/07 06:49:37;;;;;;;12.83;5.33;;;;;;;14.21;53.15;101496.47;5052110;28;20037;-63
2022/05/07 06:52:03;;;;;;;13.07;6.40;;;;;;;14.37;53.13;101501.78;5050954;28;20067;-64
2022/05/07 06:54:29;;;;;;;13.03;6.03;;;;;;;14.01;52.22;101431.69;5051504;28;20091;-62
2022/05/07 06:56:55;;;;;;;11.40;5.13;;;;;;;14.47;52.34;101475.69;5050474;28;20037;-63
2022/05/07 06:59:21;;;;;;;11.90;5.33;;;;;;;14.76;51.02;101479.66;5050320;28;20029;-65
2022/05/07 07:01:47;;;;;;;11.63;5.40;;;;;;;15.10;49.64;101504.31;5048976;28;20041;-64
2022/05/07 07:04:13;;;;;;;11.10;6.07;;;;;;;15.27;48.50;101467.50;5032868;28;20509;-63
2022/05/07 07:06:42;;;;;;;9.27;5.00;;;;;;;15.68;48.16;101478.88;5045515;28;20115;-62
2022/05/07 07:09:08;;;;;;;11.93;5.90;;;;;;;15.84;46.56;101485.13;5051359;28;20029;-67
2022/05/07 07:11:34;;;;;;;16.07;5.90;;;;;;;16.04;47.20;101489.00;5032974;28;20035;-63
2022/05/07 07:14:02;;;;;;;22.90;8.97;;;;;;;16.04;46.26;101470.19;5047897;28;20043;-66
2022/05/07 07:16:30;;;;;;;13.45;6.43;;;;;;;16.25;46.39;101474.88;5051013;28;20102;-65
2022/05/07 07:18:57;;;;;;;10.80;6.37;;;;;;;16.39;46.65;101474.91;5050987;28;20389;-67
2022/05/07 07:21:23;;;;;;;21.47;5.87;;;;;;;16.43;44.67;101465.44;5051294;28;20044;-69
2022/05/07 07:23:49;;;;;;;9.60;4.30;;;;;;;16.41;44.87;101472.84;5051348;28;20033;-66
2022/05/07 07:26:15;;;;;;;12.53;4.90;;;;;;;16.23;44.67;101450.88;5032713;28;20037;-67
2022/05/07 07:28:41;;;;;;;7.63;4.77;;;;;;;16.43;44.26;101473.50;5051172;28;20476;-69
2022/05/07 07:31:08;;;;;;;13.07;6.43;;;;;;;16.63;45.69;101459.53;5051411;28;20395;-66
2022/05/07 07:33:34;;;;;;;14.23;7.00;;;;;;;16.70;46.67;101455.09;5050053;28;20137;-65
2022/05/07 07:36:01;;;;;;;9.27;7.10;;;;;;;16.66;46.63;101449.28;5051084;28;20516;-65
2022/05/07 07:38:26;;;;;;;11.10;7.23;;;;;;;16.62;46.64;101457.88;5049580;28;20143;-66
2022/05/07 07:40:55;;;;;;;9.67;6.40;;;;;;;16.47;47.02;101449.78;5050937;28;20061;-69
2022/05/07 07:43:21;;;;;;;14.47;6.00;;;;;;;16.43;47.73;101443.94;5051375;28;20037;-67
2022/05/07 07:48:31;;;;;;;13.93;6.10;;;;;;;16.24;47.54;101400.66;5054100;28;20040;-68
2022/05/07 07:50:58;;;;;;;13.57;5.47;;;;;;;16.19;46.85;101397.66;5053044;28;20049;-67
2022/05/07 07:53:24;;;;;;;12.47;4.80;;;;;;;15.97;46.63;101359.94;5053612;28;20133;-66
2022/05/07 07:55:51;;;;;;;14.60;4.87;;;;;;;16.32;45.87;101433.66;5054061;28;20029;-66
2022/05/07 07:58:17;;;;;;;14.30;4.90;;;;;;;16.25;45.43;101411.22;5049360;28;20028;-66
2022/05/07 08:00:44;;;;;;;11.97;4.83;;;;;;;16.39;45.61;101421.13;5050713;28;20489;-66
2022/05/07 08:03:15;;;;;;;7.67;4.50;;;;;;;16.37;45.04;101393.59;5047175;28;20069;-66
2022/05/07 08:05:44;;;;;;;6.57;4.00;;;;;;;16.45;44.86;101387.28;5047362;28;20032;-69
2022/05/07 08:13:42;;;;;;;15.47;5.20;;;;;;;16.67;43.33;101383.69;5046915;28;20037;-66
2022/05/07 08:16:08;;;;;;;10.55;4.85;;;;;;;16.86;43.12;101395.75;5031165;28;20084;-64
2022/05/07 08:18:37;;;;;;;15.40;4.27;;;;;;;17.02;42.58;101384.75;5050134;28;20067;-65
2022/05/07 08:21:03;;;;;;;;;;;;;;;17.24;41.72;101403.63;5050710;28;20349;-65
2022/05/07 08:23:28;;;;;;;11.57;4.53;;;;;;;17.29;40.65;101391.25;5047943;28;19928;-65
2022/05/07 08:25:54;;;;;;;8.23;4.90;;;;;;;17.47;40.88;101388.13;5050026;28;20037;-66
2022/05/07 08:28:21;;;;;;;12.67;4.80;;;;;;;17.57;40.12;101383.25;5054654;28;20105;-67
2022/05/07 08:30:49;;;;;;;10.60;4.23;;;;;;;17.57;40.27;101356.31;5054063;28;20068;-65
2022/05/07 08:33:17;;;;;;;26.30;5.80;;;;;;;17.40;40.61;101333.38;5054130;28;20036;-65
2022/05/07 08:35:44;;;;;;;15.23;4.30;;;;;;;17.82;40.85;101381.00;5052380;28;20507;-66
2022/05/07 08:38:10;;;;;;;9.73;4.30;;;;;;;17.95;40.07;101364.13;5054375;28;20052;-66
2022/05/07 08:40:37;;;;;;;9.00;4.90;;;;;;;18.20;40.15;101361.78;5054411;28;20041;-64
2022/05/07 08:43:04;;;;;;;14.30;5.57;;;;;;;18.50;39.42;101349.72;5054223;28;20029;-67
2022/05/07 08:45:31;;;;;;;10.30;5.17;;;;;;;18.71;39.10;101364.16;5053598;28;20064;-66
2022/05/07 08:47:56;;;;;;;14.67;4.63;;;;;;;18.69;39.28;101342.78;5053957;28;20509;-66
2022/05/07 08:50:23;;;;;;;7.50;4.87;;;;;;;18.80;38.84;101358.41;5052655;28;20028;-63
2022/05/07 08:52:52;;;;;;;10.27;4.75;;;;;;;18.80;38.75;101350.31;5052691;28;20112;-66
2022/05/07 08:55:20;;;;;;;10.00;4.25;;;;;;;18.85;38.92;101336.19;5053043;28;20036;-64
2022/05/07 08:57:47;;;;;;;13.13;4.68;;;;;;;18.92;37.73;101333.50;5052329;28;20056;-65
2022/05/07 09:00:17;;;;;;;17.90;4.72;;;;;;;18.81;38.04;101341.16;5053719;28;20033;-65
2022/05/07 09:02:52;;;;;;;10.90;3.78;;;;;;;18.48;38.29;101280.81;5054195;28;20083;-65
2022/05/07 09:05:19;;;;;;;10.20;3.90;;;;;;;18.66;38.70;101310.81;5036154;28;20063;-65
2022/05/07 09:08:06;;;;;;;15.45;3.95;;;;;;;19.01;37.96;101326.88;5053864;28;20045;-65
2022/05/07 09:10:34;;;;;;;16.30;5.03;;;;;;;19.01;38.28;101316.91;5053755;28;20067;-64
2022/05/07 09:13:00;;;;;;;26.20;5.93;;;;;;;19.07;36.93;101324.19;5053005;28;20045;-66
2022/05/07 09:15:26;;;;;;;10.02;3.30;;;;;;;18.82;37.80;101321.25;5053411;28;20409;-70
2022/05/07 09:17:52;;;;;;;9.18;3.95;;;;;;;18.52;38.56;101298.28;5053663;28;20032;-69
2022/05/07 09:20:21;;;;;;;5.15;3.30;;;;;;;18.53;37.80;101332.31;5053202;28;20025;-65
2022/05/07 09:22:54;;;;;;;14.93;4.18;;;;;;;18.31;38.20;101303.78;5052023;28;20458;-67
2022/05/07 09:25:24;;;;;;;12.13;4.00;;;;;;;18.45;37.96;101300.94;5053603;28;20029;-67
2022/05/07 09:27:51;;;;;;;13.40;4.18;;;;;;;18.92;37.86;101322.72;5054110;28;20041;-73
2022/05/07 09:30:23;;;;;;;13.10;4.43;;;;;;;18.79;37.24;101265.00;5053528;28;20039;-66
2022/05/07 09:32:51;;;;;;;9.63;4.47;;;;;;;19.18;36.77;101290.38;5053495;28;20075;-66
2022/05/07 09:38:10;;;;;;;10.20;3.65;;;;;;;19.59;36.14;101297.47;5053631;28;20416;-70
2022/05/07 09:40:43;;;;;;;10.50;3.88;;;;;;;19.52;35.63;101292.03;5052083;28;20071;-64
2022/05/07 09:43:11;;;;;;;9.57;4.70;;;;;;;19.37;35.94;101276.06;5051933;28;20487;-64
2022/05/07 09:45:38;;;;;;;10.13;4.30;;;;;;;19.30;35.60;101288.72;5053476;28;20443;-64
2022/05/07 09:48:08;;;;;;;9.90;3.72;;;;;;;19.31;36.49;101290.38;5053113;28;20041;-66
2022/05/07 09:58:37;;;;;;;10.35;4.63;;;;;;;18.95;37.49;101269.16;5052973;28;20091;-69
2022/05/07 10:01:21;;;;;;;8.68;3.10;;;;;;;19.08;37.41;101281.81;5047936;28;20039;-71
2022/05/07 10:04:12;;;;;;;10.48;3.60;;;;;;;18.95;37.67;101276.41;5035859;28;20072;-73
2022/05/07 10:06:59;;;;;;;9.48;3.85;;;;;;;19.25;36.69;101269.59;5035919;28;20040;-72
2022/05/07 10:10:07;;;;;;;33.67;4.15;;;;;;;19.53;36.42;101249.66;5049349;28;20053;-64
2022/05/07 10:12:34;;;;;;;16.70;4.07;;;;;;;19.68;35.55;101251.13;5048573;28;20060;-67
2022/05/07 10:15:06;;;;;;;7.10;3.20;;;;;;;19.68;35.79;101263.81;5051953;28;20416;-65
2022/05/07 10:17:33;;;;;;;14.18;3.10;;;;;;;19.64;36.06;101251.72;5052286;28;20032;-65
2022/05/07 10:20:08;;;;;;;5.30;3.50;;;;;;;19.94;35.36;101254.78;5051889;28;20443;-65
2022/05/07 10:22:33;;;;;;;14.23;3.75;;;;;;;19.89;35.33;101260.81;5051861;28;20109;-65
2022/05/07 10:25:13;;;;;;;16.27;3.50;;;;;;;19.71;35.38;101239.91;5051494;28;20582;-66
2022/05/07 10:27:44;;;;;;;15.40;3.40;;;;;;;19.40;35.73;101213.53;5049542;28;20163;-65
2022/05/07 10:30:15;;;;;;;6.10;3.05;;;;;;;19.64;35.67;101246.31;5052198;28;20064;-65
2022/05/07 10:33:01;;;;;;;11.60;3.00;;;;;;;19.62;35.19;101240.31;5052137;28;20053;-66
2022/05/07 10:35:53;;;;;;;16.77;4.10;;;;;;;19.47;35.61;101230.53;5052464;28;20064;-65
2022/05/07 10:38:31;;;;;;;8.65;3.38;;;;;;;19.21;35.09;101217.06;5052490;28;20447;-66
2022/05/07 10:41:24;;;;;;;7.30;3.13;;;;;;;19.02;36.11;101236.75;5052755;28;20048;-65
2022/05/07 10:43:56;;;;;;;12.05;3.08;;;;;;;18.76;37.24;101237.56;5052316;28;20096;-67
2022/05/07 10:46:22;;;;;;;10.93;3.85;;;;;;;18.32;37.44;101195.72;5051771;28;20037;-65
2022/05/07 10:48:57;;;;;;;24.75;5.30;;;;;;;18.35;37.84;101240.31;5051717;28;20032;-66
2022/05/07 10:51:29;;;;;;;7.35;2.63;;;;;;;18.46;37.92;101226.25;5052240;28;20047;-65
2022/05/07 10:54:03;;;;;;;6.05;2.72;;;;;;;18.49;37.33;101215.03;5051836;28;20037;-65
2022/05/07 10:56:32;;;;;;;9.10;3.67;;;;;;;18.91;36.97;101223.88;5051770;28;20043;-65
2022/05/07 10:58:59;;;;;;;9.20;3.60;;;;;;;19.04;36.94;101205.00;5051402;28;20036;-67
2022/05/07 11:01:27;;;;;;;9.32;5.00;;;;;;;18.90;37.52;101189.84;5051996;28;20083;-67
2022/05/07 11:04:07;;;;;;;14.05;4.93;;;;;;;18.54;38.19;101158.66;5051818;28;20131;-65
2022/05/07 11:06:53;;;;;;;8.85;3.88;;;;;;;18.73;38.36;101217.22;5051780;28;20029;-66
2022/05/07 11:09:22;;;;;;;9.57;3.60;;;;;;;18.63;39.00;101215.97;5051566;28;20118;-66
2022/05/07 11:11:54;;;;;;;12.77;5.07;;;;;;;18.43;42.16;101211.31;5051795;28;20063;-65
2022/05/07 11:14:30;;;;;;;9.05;5.82;;;;;;;18.32;43.11;101197.59;5051753;28;20040;-65
2022/05/07 11:16:57;;;;;;;9.60;5.80;;;;;;;18.61;42.54;101186.47;5051676;28;20131;-68
2022/05/07 11:19:25;;;;;;;7.35;5.40;;;;;;;19.07;41.47;101174.88;5051508;28;20033;-65
2022/05/07 11:21:52;;;;;;;7.35;4.05;;;;;;;19.41;39.36;101160.31;5050080;28;20033;-67
2022/05/07 11:24:22;;;;;;;10.63;3.90;;;;;;;19.60;38.42;101180.25;5049766;28;20111;-65
2022/05/07 11:26:54;;;;;;;6.03;3.42;;;;;;;19.77;37.86;101171.47;5050191;28;20484;-66
2022/05/07 11:29:20;;;;;;;12.40;3.40;;;;;;;19.82;38.22;101172.72;5051122;28;20025;-64
2022/05/07 11:31:58;;;;;;;7.65;4.05;;;;;;;19.73;38.26;101185.63;5051979;28;20496;-67
2022/05/07 11:34:39;;;;;;;6.45;3.40;;;;;;;19.47;38.45;101183.78;5035459;28;20040;-66
2022/05/07 11:37:23;;;;;;;7.60;3.20;;;;;;;19.25;38.75;101171.56;5051580;28;20077;-65
2022/05/07 11:39:53;;;;;;;12.05;3.78;;;;;;;19.11;38.98;101181.56;5051507;28;20493;-66
2022/05/07 11:42:29;;;;;;;8.88;3.90;;;;;;;19.07;39.72;101180.28;5051528;28;20461;-65
2022/05/07 11:48:13;;;;;;;12.13;4.20;;;;;;;19.49;39.34;101147.41;5050326;28;20480;-67
2022/05/07 11:50:56;;;;;;;17.73;4.20;;;;;;;19.89;39.30;101168.94;5051474;28;20044;-66
2022/05/07 11:53:27;;;;;;;9.82;3.78;;;;;;;19.95;38.91;101172.63;5051501;28;20040;-65
2022/05/07 11:56:05;;;;;;;15.60;3.63;;;;;;;20.00;39.27;101133.13;5051525;28;20033;-65
2022/05/07 11:58:49;;;;;;;5.40;3.70;;;;;;;20.12;38.81;101152.19;5051616;28;20036;-66